Havelian Weather



Havelian's Current Weather

Temprature 33.41o few clouds

few clouds

Rain: 0 %

Min Temprature32.78o
Max Temprature34o
Humidity46
Wind Speed3.1 m/h
Sun Rise05:52:16
Sun Set18:11:26
Current Time: 18-Sep-2019 16:15:30
Lat/Lon: 34.05, 73.15




Havelian's Geo Location



Havelian's Weather Forecast

Time Overall Temp Min Temp Max Temp Humidity Wind Speed Rain
18-Sep-2019 (Wed)
17:00:00 clear sky 31.720 30.765 31.720 38 1.47 m/h 0 %
20:00:00 clear sky 25.260 24.544 25.260 42 2.74 m/h 0 %
23:00:00 clear sky 23.990 23.515 23.990 43 2.95 m/h 0 %
19-Sep-2019 (Thu)
02:00:00 clear sky 23.290 23.050 23.290 46 2.16 m/h 0 %
05:00:00 clear sky 21.850 21.850 21.850 47 1.57 m/h 0 %
08:00:00 clear sky 25.850 25.850 25.850 48 1.4 m/h 0 %
11:00:00 clear sky 31.050 31.050 31.050 40 0.72 m/h 0 %
14:00:00 clear sky 32.250 32.250 32.250 36 2.55 m/h 0 %
17:00:00 clear sky 31.050 31.050 31.050 44 1.75 m/h 0 %
20:00:00 clear sky 25.270 25.270 25.270 52 2.19 m/h 0 %
23:00:00 clear sky 24.438 24.438 24.438 52 3.01 m/h 0 %
20-Sep-2019 (Fri)
02:00:00 clear sky 22.956 22.956 22.956 55 1.4 m/h 0 %
05:00:00 clear sky 21.803 21.803 21.803 62 1.56 m/h 0 %
08:00:00 light rain 25.350 25.350 25.350 60 0.6 m/h 75 %
11:00:00 light rain 29.550 29.550 29.550 47 2.25 m/h 44 %
14:00:00 clear sky 31.150 31.150 31.150 44 3.26 m/h 0 %
17:00:00 clear sky 30.450 30.450 30.450 45 1.27 m/h 0 %
20:00:00 clear sky 24.850 24.850 24.850 54 2.17 m/h 0 %
23:00:00 clear sky 23.950 23.950 23.950 56 2.66 m/h 0 %
21-Sep-2019 (Sat)
02:00:00 clear sky 22.650 22.650 22.650 58 1.53 m/h 0 %
05:00:00 clear sky 22.094 22.094 22.094 59 1.35 m/h 0 %
08:00:00 scattered clouds 25.750 25.750 25.750 56 0.91 m/h 0 %
11:00:00 scattered clouds 29.750 29.750 29.750 47 2.38 m/h 0 %
14:00:00 broken clouds 31.050 31.050 31.050 44 2.52 m/h 0 %
17:00:00 scattered clouds 30.650 30.650 30.650 47 1.58 m/h 0 %
20:00:00 clear sky 25.150 25.150 25.150 57 1.98 m/h 0 %
23:00:00 clear sky 24.135 24.135 24.135 60 2.35 m/h 0 %
22-Sep-2019 (Sun)
02:00:00 clear sky 23.350 23.350 23.350 61 1.65 m/h 0 %
05:00:00 clear sky 22.786 22.786 22.786 60 1.49 m/h 0 %
08:00:00 clear sky 26.791 26.791 26.791 54 1.11 m/h 0 %
11:00:00 clear sky 31.003 31.003 31.003 44 2.37 m/h 0 %
14:00:00 broken clouds 32.050 32.050 32.050 40 2.43 m/h 0 %
17:00:00 scattered clouds 31.550 31.550 31.550 46 1.22 m/h 0 %
20:00:00 clear sky 25.925 25.925 25.925 55 1.94 m/h 0 %
23:00:00 clear sky 25.182 25.182 25.182 55 2.58 m/h 0 %
23-Sep-2019 (Mon)
02:00:00 clear sky 24.003 24.003 24.003 58 1.49 m/h 0 %
05:00:00 clear sky 23.077 23.077 23.077 62 1.46 m/h 0 %
08:00:00 clear sky 27.144 27.144 27.144 57 1.31 m/h 0 %
11:00:00 clear sky 31.377 31.377 31.377 44 2.18 m/h 0 %
14:00:00 broken clouds 32.504 32.504 32.504 40 2.52 m/h 0 %

Famous Cities (61)